createdAt,value
2019-02-25T00:01:37.400Z,1.29
2019-02-25T00:03:38.762Z,1.22
2019-02-25T00:05:40.157Z,1.22
2019-02-25T00:07:41.513Z,1.19
2019-02-25T00:09:42.898Z,1.18
2019-02-25T00:11:44.300Z,1.25
2019-02-25T00:13:45.698Z,1.23
2019-02-25T00:15:47.069Z,1.15
2019-02-25T00:17:48.444Z,1.13
2019-02-25T00:19:49.821Z,1.03
2019-02-25T00:21:51.255Z,1.13
2019-02-25T00:23:52.624Z,1.11
2019-02-25T00:25:54.020Z,1.03
2019-02-25T00:27:55.386Z,0.98
2019-02-25T00:29:56.740Z,0.95
2019-02-25T00:31:58.139Z,0.96
2019-02-25T00:33:59.493Z,0.93
2019-02-25T00:36:00.901Z,0.90
2019-02-25T00:38:02.273Z,0.90
2019-02-25T00:40:06.747Z,0.92
2019-02-25T00:42:08.132Z,0.99
2019-02-25T00:44:09.501Z,1.07
2019-02-25T00:46:10.896Z,1.04
2019-02-25T00:48:12.300Z,0.99
2019-02-25T00:50:17.359Z,0.92
2019-02-25T00:52:18.766Z,0.87
2019-02-25T00:54:20.142Z,0.87
2019-02-25T00:56:21.553Z,0.83
2019-02-25T00:58:22.967Z,0.96
2019-02-25T01:00:24.524Z,0.91
2019-02-25T01:02:25.977Z,0.92
2019-02-25T01:04:27.478Z,0.92
2019-02-25T01:06:29.167Z,0.93
2019-02-25T01:08:30.516Z,1.11
2019-02-25T01:10:31.894Z,1.16
2019-02-25T01:12:33.297Z,1.15
2019-02-25T01:14:34.656Z,1.04
2019-02-25T01:16:36.038Z,0.90
2019-02-25T01:18:37.385Z,0.95
2019-02-25T01:20:38.782Z,0.92
2019-02-25T01:22:40.235Z,0.86
2019-02-25T01:24:41.611Z,0.86
2019-02-25T01:26:43.009Z,0.84
2019-02-25T01:28:44.388Z,0.94
2019-02-25T01:30:45.762Z,0.80
2019-02-25T01:32:47.201Z,0.77
2019-02-25T01:34:48.627Z,0.80
2019-02-25T01:36:50.064Z,0.86
2019-02-25T01:38:51.436Z,0.78
2019-02-25T01:40:52.816Z,0.79
2019-02-25T01:42:54.172Z,0.79
2019-02-25T01:44:55.569Z,0.78
2019-02-25T01:46:57.152Z,0.80
2019-02-25T01:48:58.513Z,0.81
2019-02-25T01:50:59.901Z,0.92
2019-02-25T01:53:01.271Z,0.77
2019-02-25T01:55:05.427Z,0.93
2019-02-25T01:57:06.812Z,0.93
2019-02-25T01:59:08.168Z,0.71
2019-02-25T02:01:09.830Z,0.56
2019-02-25T02:03:11.236Z,0.51
2019-02-25T02:05:12.776Z,0.68
2019-02-25T02:07:14.157Z,0.79
2019-02-25T02:09:15.534Z,0.70
2019-02-25T02:11:17.123Z,0.70
2019-02-25T02:13:18.496Z,0.72
2019-02-25T02:15:20.775Z,0.63
2019-02-25T02:17:22.169Z,0.49
2019-02-25T02:19:23.510Z,0.42
2019-02-25T02:21:24.898Z,0.35
2019-02-25T02:23:26.269Z,0.29
2019-02-25T02:25:27.657Z,0.34
2019-02-25T02:27:29.060Z,0.31
2019-02-25T02:29:30.433Z,0.30
2019-02-25T02:31:31.799Z,0.26
2019-02-25T02:33:33.205Z,0.28
2019-02-25T02:35:34.581Z,0.26
2019-02-25T02:37:35.928Z,0.21
2019-02-25T02:39:37.519Z,0.16
2019-02-25T02:42:15.844Z,0.20
2019-02-25T02:44:17.225Z,0.44
2019-02-25T02:46:42.609Z,0.59
2019-02-25T02:48:52.613Z,0.61
2019-02-25T02:50:53.963Z,0.57
2019-02-25T02:52:55.346Z,0.45
2019-02-25T02:54:56.710Z,0.40
2019-02-25T02:56:58.081Z,0.25
2019-02-25T02:58:59.524Z,0.13
2019-02-25T03:01:00.928Z,0.07
2019-02-25T03:03:02.403Z,0.06
2019-02-25T03:05:08.632Z,0.04
2019-02-25T03:07:10.039Z,-0.01
2019-02-25T03:09:11.560Z,-0.05
2019-02-25T03:11:12.939Z,-0.06
2019-02-25T03:13:14.298Z,-0.03
2019-02-25T03:15:21.045Z,-0.08
2019-02-25T03:17:22.411Z,-0.14
2019-02-25T03:19:23.754Z,-0.12
2019-02-25T03:21:25.144Z,-0.04
2019-02-25T03:23:26.516Z,0.03
2019-02-25T03:25:27.856Z,-0.02
2019-02-25T03:27:29.251Z,-0.02
2019-02-25T03:29:30.646Z,0.14
2019-02-25T03:31:32.010Z,0.19
2019-02-25T03:33:33.389Z,0.12
2019-02-25T03:35:34.789Z,-0.01
2019-02-25T03:37:36.120Z,-0.03
2019-02-25T03:39:37.516Z,-0.11
2019-02-25T03:41:38.961Z,-0.09
2019-02-25T03:43:40.337Z,0.00
2019-02-25T03:45:41.707Z,-0.05
2019-02-25T03:47:43.195Z,0.04
2019-02-25T03:49:45.070Z,0.06
2019-02-25T03:51:46.434Z,0.06
2019-02-25T03:53:47.773Z,0.10
2019-02-25T03:55:49.206Z,0.14
2019-02-25T03:57:50.547Z,0.42
2019-02-25T03:59:51.906Z,0.77
2019-02-25T04:01:53.509Z,0.77
2019-02-25T04:03:54.856Z,0.53
2019-02-25T04:05:56.220Z,0.40
2019-02-25T04:07:57.603Z,0.45
2019-02-25T04:09:58.963Z,0.29
2019-02-25T04:12:00.440Z,0.34
2019-02-25T04:14:01.915Z,0.31
2019-02-25T04:16:03.285Z,0.29
2019-02-25T04:18:04.683Z,0.34
2019-02-25T04:20:12.517Z,0.22
2019-02-25T04:22:13.874Z,0.32
2019-02-25T04:24:15.269Z,0.40
2019-02-25T04:26:16.600Z,0.59
2019-02-25T04:28:17.941Z,0.56
2019-02-25T04:30:19.335Z,0.60
2019-02-25T04:32:21.787Z,0.55
2019-02-25T04:34:23.272Z,0.52
2019-02-25T04:36:24.629Z,0.28
2019-02-25T04:38:26.030Z,0.17
2019-02-25T04:40:27.418Z,0.07
2019-02-25T04:42:28.751Z,0.07
2019-02-25T04:44:30.110Z,0.04
2019-02-25T04:46:31.474Z,0.21
2019-02-25T04:48:32.813Z,0.16
2019-02-25T04:50:34.203Z,0.11
2019-02-25T04:52:35.585Z,0.10
2019-02-25T04:54:36.937Z,0.25
2019-02-25T04:56:38.508Z,0.21
2019-02-25T04:58:39.857Z,0.19
2019-02-25T05:00:41.202Z,0.27
2019-02-25T05:02:42.590Z,0.19
2019-02-25T05:04:43.952Z,0.20
2019-02-25T05:06:45.317Z,0.09
2019-02-25T05:08:46.823Z,0.05
2019-02-25T05:10:48.162Z,-0.02
2019-02-25T05:12:54.132Z,-0.07
2019-02-25T05:14:55.491Z,-0.16
2019-02-25T05:16:56.885Z,-0.17
2019-02-25T05:18:58.274Z,-0.24
2019-02-25T05:20:59.610Z,-0.03
2019-02-25T05:23:00.982Z,0.03
2019-02-25T05:25:06.105Z,0.12
2019-02-25T05:27:07.496Z,0.15
2019-02-25T05:29:08.861Z,0.02
2019-02-25T05:31:10.688Z,0.05
2019-02-25T05:33:12.114Z,-0.03
2019-02-25T05:35:13.556Z,-0.03
2019-02-25T05:37:14.928Z,-0.01
2019-02-25T05:39:16.285Z,-0.03
2019-02-25T05:41:17.677Z,-0.14
2019-02-25T05:43:19.075Z,-0.18
2019-02-25T05:45:20.445Z,-0.30
2019-02-25T05:47:21.791Z,-0.25
2019-02-25T05:49:23.414Z,0.01
2019-02-25T05:51:24.751Z,0.13
2019-02-25T05:53:26.102Z,0.34
2019-02-25T05:55:27.469Z,0.06
2019-02-25T05:57:28.808Z,0.02
2019-02-25T05:59:30.226Z,0.00
2019-02-25T06:01:31.579Z,-0.17
2019-02-25T06:03:32.945Z,-0.19
2019-02-25T06:05:34.340Z,0.05
2019-02-25T06:07:35.949Z,-0.04
2019-02-25T06:09:37.283Z,0.34
2019-02-25T06:11:38.678Z,0.37
2019-02-25T06:13:40.034Z,0.44
2019-02-25T06:15:41.392Z,0.30
2019-02-25T06:17:42.748Z,0.16
2019-02-25T06:19:44.153Z,-0.05
2019-02-25T06:21:45.519Z,-0.12
2019-02-25T06:23:46.879Z,-0.25
2019-02-25T06:25:48.252Z,-0.30
2019-02-25T06:27:49.620Z,-0.41
2019-02-25T06:29:50.997Z,-0.46
2019-02-25T06:31:52.472Z,-0.44
2019-02-25T06:33:53.849Z,-0.36
2019-02-25T06:35:55.183Z,-0.36
2019-02-25T06:37:56.525Z,-0.36
2019-02-25T06:39:58.019Z,-0.40
2019-02-25T06:41:59.378Z,-0.40
2019-02-25T06:44:00.732Z,-0.40
2019-02-25T06:46:02.103Z,-0.32
2019-02-25T06:48:03.553Z,-0.32
2019-02-25T06:50:08.402Z,-0.33
2019-02-25T06:52:10.477Z,-0.26
2019-02-25T06:54:11.824Z,-0.28
2019-02-25T06:56:13.173Z,-0.26
2019-02-25T06:58:14.537Z,-0.24
2019-02-25T07:00:20.646Z,-0.15
2019-02-25T07:02:22.029Z,-0.09
2019-02-25T07:04:28.198Z,0.00
2019-02-25T07:06:31.535Z,0.29
2019-02-25T07:08:43.865Z,0.50
2019-02-25T07:10:47.157Z,0.92
2019-02-25T07:12:50.431Z,1.01
2019-02-25T07:15:02.419Z,1.16
2019-02-25T07:17:08.610Z,1.17
2019-02-25T07:19:11.886Z,1.33
2019-02-25T07:21:17.822Z,1.37
2019-02-25T07:23:33.314Z,1.43
2019-02-25T07:25:45.631Z,1.46
2019-02-25T07:28:05.611Z,1.65
2019-02-25T07:30:20.844Z,1.85
2019-02-25T07:32:42.153Z,2.23
2019-02-25T07:34:45.406Z,2.58
2019-02-25T07:36:51.607Z,2.71
2019-02-25T07:39:11.506Z,2.78
2019-02-25T07:41:20.457Z,2.90
2019-02-25T07:43:38.724Z,3.01
2019-02-25T07:45:54.154Z,3.15
2019-02-25T07:47:57.411Z,3.26
2019-02-25T07:50:09.495Z,3.37
2019-02-25T07:52:30.808Z,3.56
2019-02-25T07:54:49.284Z,3.63
2019-02-25T07:56:52.584Z,3.85
2019-02-25T07:58:55.899Z,3.99
2019-02-25T08:00:59.187Z,4.04
2019-02-25T08:03:02.446Z,4.19
2019-02-25T08:05:11.381Z,4.30
2019-02-25T08:07:26.805Z,4.43
2019-02-25T08:09:30.045Z,4.63
2019-02-25T08:11:33.334Z,4.84
2019-02-25T08:13:39.646Z,5.03
2019-02-25T08:15:49.018Z,5.18
2019-02-25T08:18:08.931Z,5.36
2019-02-25T08:20:28.789Z,5.30
2019-02-25T08:22:40.869Z,5.58
2019-02-25T08:24:59.131Z,5.73
2019-02-25T08:27:08.304Z,5.84
2019-02-25T08:29:26.823Z,6.05
2019-02-25T08:31:46.584Z,6.24
2019-02-25T08:33:58.651Z,6.41
2019-02-25T08:36:28.783Z,6.67
2019-02-25T08:38:34.973Z,6.83
2019-02-25T08:40:43.920Z,7.00
2019-02-25T08:42:49.983Z,7.12
2019-02-25T08:44:59.157Z,7.24
2019-02-25T08:47:17.367Z,7.42
2019-02-25T08:49:23.358Z,7.53
2019-02-25T08:51:24.696Z,7.66
2019-02-25T08:53:26.067Z,7.77
2019-02-25T08:55:27.427Z,7.86
2019-02-25T08:57:28.771Z,8.03
2019-02-25T08:59:30.168Z,8.20
2019-02-25T09:01:31.520Z,8.30
2019-02-25T09:03:33.354Z,8.37
2019-02-25T09:05:34.722Z,8.44
2019-02-25T09:07:36.086Z,8.58
2019-02-25T09:09:37.475Z,8.74
2019-02-25T09:11:38.914Z,8.83
2019-02-25T09:13:40.277Z,8.97
2019-02-25T09:15:41.704Z,9.11
2019-02-25T09:17:43.412Z,9.23
2019-02-25T09:19:44.805Z,9.37
2019-02-25T09:21:46.165Z,9.52
2019-02-25T09:23:47.529Z,9.68
2019-02-25T09:25:48.923Z,9.79
2019-02-25T09:27:50.291Z,9.83
2019-02-25T09:29:51.688Z,10.00
2019-02-25T09:31:53.093Z,10.15
2019-02-25T09:33:54.431Z,10.22
2019-02-25T09:35:55.825Z,10.31
2019-02-25T09:37:57.237Z,10.24
2019-02-25T09:39:58.677Z,10.45
2019-02-25T09:42:02.017Z,10.53
2019-02-25T09:44:03.324Z,10.55
2019-02-25T09:46:04.690Z,10.55
2019-02-25T09:48:06.071Z,10.87
2019-02-25T09:50:21.649Z,11.02
2019-02-25T09:52:23.446Z,11.08
2019-02-25T09:54:24.806Z,11.29
2019-02-25T09:56:26.152Z,11.43
2019-02-25T09:58:27.747Z,11.56
2019-02-25T10:00:29.195Z,11.66
2019-02-25T10:02:30.568Z,11.81
2019-02-25T10:04:31.966Z,11.85
2019-02-25T10:06:33.536Z,11.97
2019-02-25T10:08:34.877Z,12.13
2019-02-25T10:10:36.276Z,12.19
2019-02-25T10:12:37.669Z,12.22
2019-02-25T10:14:39.065Z,12.37
2019-02-25T10:16:40.458Z,12.61
2019-02-25T10:18:41.876Z,12.54
2019-02-25T10:20:43.237Z,12.52
2019-02-25T10:22:44.617Z,12.43
2019-02-25T10:24:46.327Z,12.51
2019-02-25T10:26:47.677Z,12.31
2019-02-25T10:28:49.052Z,12.47
2019-02-25T10:30:53.087Z,12.47
2019-02-25T10:32:53.723Z,12.10
2019-02-25T10:34:55.066Z,12.22
2019-02-25T10:36:56.480Z,12.19
2019-02-25T10:38:57.836Z,12.27
2019-02-25T10:40:59.480Z,12.16
2019-02-25T10:43:01.098Z,12.27
2019-02-25T10:45:08.901Z,12.54
2019-02-25T10:47:10.953Z,12.54
2019-02-25T10:49:13.823Z,12.64
2019-02-25T10:51:15.192Z,12.75
2019-02-25T10:53:18.209Z,13.00
2019-02-25T10:55:37.396Z,13.08
2019-02-25T10:57:38.742Z,13.24
2019-02-25T10:59:41.506Z,13.28
2019-02-25T11:01:43.832Z,13.27
2019-02-25T11:03:47.852Z,13.34
2019-02-25T11:05:51.590Z,13.50
2019-02-25T11:07:52.980Z,13.77
2019-02-25T11:09:59.374Z,13.71
2019-02-25T11:12:00.769Z,13.84
2019-02-25T11:14:05.019Z,13.80
2019-02-25T11:16:06.433Z,13.94
2019-02-25T11:18:07.789Z,14.06
2019-02-25T11:20:13.053Z,13.89
2019-02-25T11:22:16.238Z,13.96
2019-02-25T11:24:19.045Z,14.00
2019-02-25T11:26:21.007Z,14.07
2019-02-25T11:28:25.911Z,14.11
2019-02-25T11:30:25.831Z,14.15
2019-02-25T11:32:27.976Z,14.25
2019-02-25T11:34:31.087Z,14.45
2019-02-25T11:36:32.736Z,14.48
2019-02-25T11:38:37.051Z,14.73
2019-02-25T11:40:38.361Z,14.87
2019-02-25T11:42:40.183Z,14.80
2019-02-25T11:44:41.554Z,14.70
2019-02-25T11:46:42.884Z,14.93
2019-02-25T11:48:44.287Z,14.89
2019-02-25T11:50:45.718Z,14.71
2019-02-25T11:52:47.187Z,14.55
2019-02-25T11:54:48.559Z,14.74
2019-02-25T11:56:50.007Z,15.05
2019-02-25T11:58:51.366Z,14.94
2019-02-25T12:00:52.731Z,15.24
2019-02-25T12:02:54.121Z,15.46
2019-02-25T12:04:55.495Z,15.66
2019-02-25T12:06:56.895Z,15.28
2019-02-25T12:08:58.264Z,15.48
2019-02-25T12:10:59.631Z,15.32
2019-02-25T12:13:01.851Z,15.46
2019-02-25T12:15:08.605Z,15.84
2019-02-25T12:17:10.029Z,15.80
2019-02-25T12:19:17.775Z,15.55
2019-02-25T12:21:14.652Z,15.61
2019-02-25T12:23:16.003Z,15.90
2019-02-25T12:25:23.879Z,15.81
2019-02-25T12:27:25.262Z,15.70
2019-02-25T12:29:26.636Z,16.06
2019-02-25T12:31:28.128Z,16.15
2019-02-25T12:33:29.582Z,15.99
2019-02-25T12:35:30.960Z,15.90
2019-02-25T12:37:32.303Z,15.79
2019-02-25T12:39:33.647Z,15.54
2019-02-25T12:41:35.053Z,15.76
2019-02-25T12:43:36.419Z,16.02
2019-02-25T12:45:37.757Z,15.90
2019-02-25T12:47:39.128Z,15.94
2019-02-25T12:49:40.503Z,15.71
2019-02-25T12:51:41.995Z,15.99
2019-02-25T12:53:43.650Z,15.94
2019-02-25T12:55:45.010Z,15.81
2019-02-25T12:57:46.359Z,15.85
2019-02-25T12:59:47.779Z,15.63
2019-02-25T13:01:49.188Z,15.74
2019-02-25T13:03:50.566Z,15.84
2019-02-25T13:05:51.945Z,15.92
2019-02-25T13:07:53.311Z,15.91
2019-02-25T13:09:54.662Z,16.05
2019-02-25T13:11:56.057Z,16.11
2019-02-25T13:13:57.408Z,16.49
2019-02-25T13:15:58.771Z,16.31
2019-02-25T13:18:00.299Z,16.40
2019-02-25T13:20:04.634Z,16.36
2019-02-25T13:22:05.975Z,16.52
2019-02-25T13:24:09.697Z,16.44
2019-02-25T13:26:10.702Z,16.52
2019-02-25T13:28:12.037Z,16.55
2019-02-25T13:30:16.299Z,16.79
2019-02-25T13:32:17.685Z,16.53
2019-02-25T13:34:19.460Z,16.65
2019-02-25T13:36:20.840Z,16.88
2019-02-25T13:38:22.309Z,16.86
2019-02-25T13:40:23.779Z,16.88
2019-02-25T13:42:25.670Z,16.98
2019-02-25T13:44:27.155Z,16.79
2019-02-25T13:46:28.546Z,16.76
2019-02-25T13:48:30.038Z,16.59
2019-02-25T13:50:31.638Z,16.75
2019-02-25T13:52:33.140Z,16.85
2019-02-25T13:54:34.605Z,16.96
2019-02-25T13:56:36.086Z,17.19
2019-02-25T13:58:37.561Z,17.25
2019-02-25T14:00:39.271Z,17.22
2019-02-25T14:02:40.813Z,16.95
2019-02-25T14:04:42.253Z,17.11
2019-02-25T14:06:43.681Z,16.85
2019-02-25T14:08:45.049Z,16.82
2019-02-25T14:10:46.410Z,17.01
2019-02-25T14:12:47.803Z,17.01
2019-02-25T14:14:49.694Z,17.27
2019-02-25T14:16:51.090Z,17.41
2019-02-25T14:18:52.448Z,17.34
2019-02-25T14:20:53.832Z,17.12
2019-02-25T14:22:55.627Z,17.08
2019-02-25T14:24:57.036Z,17.08
2019-02-25T14:26:58.400Z,17.31
2019-02-25T14:28:59.859Z,17.57
2019-02-25T14:31:01.274Z,17.47
2019-02-25T14:33:02.930Z,17.45
2019-02-25T14:35:07.880Z,17.76
2019-02-25T14:37:09.527Z,17.75
2019-02-25T14:39:24.979Z,17.83
2019-02-25T14:41:23.536Z,17.79
2019-02-25T14:43:26.967Z,17.74
2019-02-25T14:45:28.943Z,17.82
2019-02-25T14:47:36.886Z,17.38
2019-02-25T14:49:37.627Z,17.33
2019-02-25T14:51:38.596Z,17.39
2019-02-25T14:53:41.754Z,17.17
2019-02-25T14:55:46.895Z,17.22
2019-02-25T14:57:47.211Z,17.02
2019-02-25T14:59:48.668Z,17.20
2019-02-25T15:01:50.232Z,17.22
2019-02-25T15:03:51.638Z,17.00
2019-02-25T15:05:54.839Z,16.96
2019-02-25T15:07:56.293Z,17.00
2019-02-25T15:09:58.466Z,16.99
2019-02-25T15:12:01.833Z,16.96
2019-02-25T15:14:06.203Z,17.33
2019-02-25T15:16:07.675Z,17.30
2019-02-25T15:18:09.200Z,17.44
2019-02-25T15:20:18.271Z,17.63
2019-02-25T15:22:19.730Z,17.67
2019-02-25T15:24:21.103Z,17.95
2019-02-25T15:26:23.688Z,17.84
2019-02-25T15:28:25.818Z,17.85
2019-02-25T15:30:30.828Z,17.93
2019-02-25T15:32:34.944Z,18.01
2019-02-25T15:34:37.586Z,17.93
2019-02-25T15:36:39.251Z,18.53
2019-02-25T15:38:41.136Z,18.63
2019-02-25T15:40:43.316Z,18.80
2019-02-25T15:42:44.863Z,19.21
2019-02-25T15:44:47.244Z,19.38
2019-02-25T15:46:49.593Z,19.33
2019-02-25T15:48:51.062Z,19.49
2019-02-25T15:50:55.619Z,19.34
2019-02-25T15:53:00.896Z,18.68
2019-02-25T15:55:01.941Z,18.13
2019-02-25T15:57:03.767Z,17.81
2019-02-25T15:59:05.356Z,17.72
2019-02-25T16:01:07.331Z,17.24
2019-02-25T16:03:11.031Z,16.98
2019-02-25T16:05:12.007Z,17.06
2019-02-25T16:07:13.419Z,17.01
2019-02-25T16:09:17.319Z,17.16
2019-02-25T16:11:20.804Z,17.16
2019-02-25T16:13:23.738Z,17.12
2019-02-25T16:15:25.101Z,16.68
2019-02-25T16:17:26.501Z,16.72
2019-02-25T16:19:38.882Z,16.57
2019-02-25T16:21:31.495Z,16.47
2019-02-25T16:23:34.684Z,16.10
2019-02-25T16:25:36.449Z,15.53
2019-02-25T16:27:37.792Z,15.08
2019-02-25T16:29:39.182Z,14.88
2019-02-25T16:31:40.558Z,14.73
2019-02-25T16:33:41.919Z,14.74
2019-02-25T16:35:45.490Z,14.54
2019-02-25T16:37:48.582Z,14.39
2019-02-25T16:39:49.966Z,14.08
2019-02-25T16:41:51.340Z,13.77
2019-02-25T16:43:52.741Z,13.88
2019-02-25T16:45:54.085Z,13.89
2019-02-25T16:47:55.763Z,13.97
2019-02-25T16:49:58.510Z,13.96
2019-02-25T16:52:02.154Z,13.76
2019-02-25T16:54:04.438Z,13.57
2019-02-25T16:56:07.930Z,13.28
2019-02-25T16:58:13.055Z,12.97
2019-02-25T17:00:29.374Z,12.78
2019-02-25T17:02:30.095Z,12.63
2019-02-25T17:04:32.923Z,12.48
2019-02-25T17:06:35.187Z,12.46
2019-02-25T17:08:38.019Z,12.41
2019-02-25T17:10:39.497Z,12.29
2019-02-25T17:12:40.877Z,12.23
2019-02-25T17:14:42.312Z,11.97
2019-02-25T17:16:43.776Z,11.92
2019-02-25T17:18:46.359Z,11.80
2019-02-25T17:20:50.311Z,11.61
2019-02-25T17:22:51.855Z,11.61
2019-02-25T17:24:54.265Z,11.49
2019-02-25T17:26:56.555Z,11.33
2019-02-25T17:28:57.902Z,11.29
2019-02-25T17:30:59.274Z,11.29
2019-02-25T17:33:01.603Z,11.14
2019-02-25T17:35:08.785Z,11.06
2019-02-25T17:37:10.779Z,11.07
2019-02-25T17:39:14.986Z,11.26
2019-02-25T17:41:16.762Z,11.26
2019-02-25T17:43:20.085Z,11.20
2019-02-25T17:45:27.718Z,11.22
2019-02-25T17:47:32.406Z,11.19
2019-02-25T17:49:33.728Z,11.14
2019-02-25T17:51:35.870Z,11.14
2019-02-25T17:53:37.429Z,11.21
2019-02-25T17:55:38.879Z,10.98
2019-02-25T17:57:40.369Z,10.98
2019-02-25T17:59:43.983Z,10.87
2019-02-25T18:01:46.368Z,10.78
2019-02-25T18:03:48.601Z,10.63
2019-02-25T18:05:50.145Z,10.54
2019-02-25T18:07:51.494Z,10.50
2019-02-25T18:09:52.844Z,10.46
2019-02-25T18:11:54.360Z,10.43
2019-02-25T18:13:57.384Z,10.43
2019-02-25T18:15:59.168Z,10.64
2019-02-25T18:18:00.778Z,10.25
2019-02-25T18:20:05.837Z,10.04
2019-02-25T18:22:07.224Z,10.21
2019-02-25T18:24:10.047Z,10.25
2019-02-25T18:26:12.466Z,10.27
2019-02-25T18:28:16.148Z,9.98
2019-02-25T18:30:29.582Z,10.03
2019-02-25T18:32:32.895Z,9.52
2019-02-25T18:34:36.489Z,9.38
2019-02-25T18:36:38.083Z,9.25
2019-02-25T18:38:39.660Z,9.23
2019-02-25T18:40:43.475Z,9.16
2019-02-25T18:42:44.747Z,9.07
2019-02-25T18:44:47.046Z,8.84
2019-02-25T18:46:50.769Z,8.75
2019-02-25T18:48:53.177Z,8.65
2019-02-25T18:50:57.203Z,8.63
2019-02-25T18:52:59.576Z,8.66
2019-02-25T18:55:02.861Z,8.63
2019-02-25T18:57:05.881Z,8.62
2019-02-25T18:59:13.070Z,8.59
2019-02-25T19:01:13.400Z,8.61
2019-02-25T19:03:15.677Z,8.89
2019-02-25T19:05:17.138Z,8.86
2019-02-25T19:07:18.751Z,8.67
2019-02-25T19:09:21.211Z,8.52
2019-02-25T19:11:25.502Z,8.47
2019-02-25T19:13:28.235Z,8.46
2019-02-25T19:15:30.720Z,8.57
2019-02-25T19:17:32.291Z,8.55
2019-02-25T19:19:36.333Z,8.54
2019-02-25T19:21:37.300Z,8.52
2019-02-25T19:23:39.471Z,8.46
2019-02-25T19:25:42.100Z,8.32
2019-02-25T19:27:44.046Z,8.31
2019-02-25T19:29:49.185Z,8.39
2019-02-25T19:31:48.890Z,8.14
2019-02-25T19:33:50.440Z,8.22
2019-02-25T19:35:54.359Z,8.10
2019-02-25T19:37:55.763Z,8.08
2019-02-25T19:39:57.279Z,8.10
2019-02-25T19:42:00.507Z,8.01
2019-02-25T19:44:03.687Z,8.04
2019-02-25T19:46:06.334Z,8.13
2019-02-25T19:48:08.820Z,8.19
2019-02-25T19:50:15.110Z,8.44
2019-02-25T19:52:16.917Z,8.58
2019-02-25T19:54:18.698Z,8.53
2019-02-25T19:56:20.172Z,8.39
2019-02-25T19:58:21.685Z,8.00
2019-02-25T20:00:27.510Z,7.75
2019-02-25T20:02:29.778Z,7.64
2019-02-25T20:04:35.571Z,7.45
2019-02-25T20:06:35.018Z,7.62
2019-02-25T20:08:36.397Z,7.66
2019-02-25T20:10:38.220Z,7.55
2019-02-25T20:12:39.682Z,7.68
2019-02-25T20:14:42.584Z,7.56
2019-02-25T20:16:44.185Z,7.73
2019-02-25T20:18:45.609Z,7.73
2019-02-25T20:20:47.153Z,7.55
2019-02-25T20:22:48.701Z,7.83
2019-02-25T20:24:50.656Z,7.92
2019-02-25T20:26:57.617Z,7.92
2019-02-25T20:28:56.749Z,7.82
2019-02-25T20:30:58.126Z,7.82
2019-02-25T20:33:01.173Z,7.85
2019-02-25T20:35:07.257Z,7.60
2019-02-25T20:37:08.608Z,7.37
2019-02-25T20:39:10.225Z,7.31
2019-02-25T20:41:11.595Z,7.33
2019-02-25T20:43:12.977Z,7.34
2019-02-25T20:45:31.058Z,7.53
2019-02-25T20:47:33.484Z,7.59
2019-02-25T20:49:34.882Z,7.66
2019-02-25T20:51:36.301Z,7.50
2019-02-25T20:53:37.934Z,7.36
2019-02-25T20:55:39.389Z,7.18
2019-02-25T20:57:41.216Z,7.29
2019-02-25T20:59:42.669Z,7.25
2019-02-25T21:01:46.182Z,7.27
2019-02-25T21:03:48.575Z,7.57
2019-02-25T21:05:50.733Z,7.40
2019-02-25T21:07:53.392Z,7.24
2019-02-25T21:09:56.863Z,7.16
2019-02-25T21:11:58.702Z,7.07
2019-02-25T21:14:00.092Z,7.29
2019-02-25T21:16:02.686Z,7.12
2019-02-25T21:18:07.537Z,7.10
2019-02-25T21:20:13.356Z,7.04
2019-02-25T21:22:14.809Z,6.95
2019-02-25T21:24:16.220Z,7.06
2019-02-25T21:26:17.595Z,6.91
2019-02-25T21:28:20.045Z,6.81
2019-02-25T21:30:21.617Z,6.83
2019-02-25T21:32:24.228Z,6.77
2019-02-25T21:34:28.614Z,6.75
2019-02-25T21:36:31.628Z,6.79
2019-02-25T21:38:33.232Z,6.68
2019-02-25T21:40:34.658Z,6.88
2019-02-25T21:42:36.084Z,7.03
2019-02-25T21:44:37.481Z,6.84
2019-02-25T21:46:38.865Z,7.24
2019-02-25T21:48:40.276Z,7.44
2019-02-25T21:50:42.675Z,7.43
2019-02-25T21:52:45.744Z,7.38
2019-02-25T21:54:47.590Z,7.15
2019-02-25T21:56:49.050Z,7.17
2019-02-25T21:58:50.960Z,7.06
2019-02-25T22:00:53.754Z,6.88
2019-02-25T22:02:55.172Z,6.78
2019-02-25T22:04:56.558Z,6.58
2019-02-25T22:07:00.163Z,6.51
2019-02-25T22:09:02.990Z,6.59
2019-02-25T22:11:12.225Z,6.54
2019-02-25T22:13:09.431Z,6.72
2019-02-25T22:15:19.807Z,6.74
2019-02-25T22:17:22.888Z,6.62
2019-02-25T22:19:25.484Z,6.57
2019-02-25T22:21:27.272Z,6.39
2019-02-25T22:23:30.651Z,6.41
2019-02-25T22:25:32.778Z,6.58
2019-02-25T22:27:36.836Z,6.56
2019-02-25T22:29:38.627Z,6.49
2019-02-25T22:31:44.096Z,6.49
2019-02-25T22:33:47.193Z,6.38
2019-02-25T22:35:51.536Z,6.30
2019-02-25T22:37:55.470Z,6.37
2019-02-25T22:39:56.527Z,6.38
2019-02-25T22:41:58.839Z,6.24
2019-02-25T22:44:02.037Z,6.15
2019-02-25T22:46:05.535Z,6.09
2019-02-25T22:48:07.926Z,5.97
2019-02-25T22:50:13.337Z,5.76
2019-02-25T22:52:15.141Z,5.73
2019-02-25T22:54:17.553Z,5.64
2019-02-25T22:56:21.612Z,5.77
2019-02-25T22:58:24.569Z,5.55
2019-02-25T23:00:34.613Z,5.47
2019-02-25T23:02:36.305Z,5.47
2019-02-25T23:04:40.993Z,5.74
2019-02-25T23:06:44.002Z,5.88
2019-02-25T23:08:46.992Z,5.90
2019-02-25T23:10:51.525Z,5.81
2019-02-25T23:12:53.508Z,5.70
2019-02-25T23:14:56.044Z,5.70
2019-02-25T23:16:59.827Z,5.56
2019-02-25T23:19:02.769Z,5.56
2019-02-25T23:21:04.516Z,5.41
2019-02-25T23:23:06.673Z,5.34
2019-02-25T23:25:10.849Z,5.42
2019-02-25T23:27:12.549Z,5.44
2019-02-25T23:29:15.584Z,5.57
2019-02-25T23:31:17.864Z,5.73
2019-02-25T23:33:22.038Z,5.60
2019-02-25T23:35:25.292Z,5.54
2019-02-25T23:37:26.955Z,5.53
2019-02-25T23:39:30.265Z,5.47
2019-02-25T23:41:36.244Z,5.57
2019-02-25T23:43:37.833Z,5.64
2019-02-25T23:45:41.722Z,5.72
2019-02-25T23:47:43.338Z,5.67
2019-02-25T23:49:46.215Z,5.69
2019-02-25T23:51:49.598Z,5.75
2019-02-25T23:53:53.557Z,5.69
2019-02-25T23:55:58.642Z,5.79
2019-02-25T23:58:00.230Z,5.93
